Time;durP1;ratioP1;P1;durP2;ratioP2;P2;SDS_P1;SDS_P2;PMS_P1;PMS_P2;Temp;Humidity;BMP_temperature;BMP_pressure;BME280_temperature;BME280_humidity;BME280_pressure;Samples;Min_cycle;Max_cycle;Signal;HPM_P1;HPM_P2
2022/04/12 00:02:19;;;;;;;57.88;22.60;;;;;;;;;;6121119;29;20051;-87
2022/04/12 00:05:19;;;;;;;62.83;24.73;;;;;;;;;;6120656;29;20027;-87
2022/04/12 00:08:19;;;;;;;67.32;27.55;;;;;;;;;;6111548;29;20733;-87
2022/04/12 00:11:19;;;;;;;60.90;27.35;;;;;;;;;;6109558;29;20028;-86
2022/04/12 00:14:20;;;;;;;60.63;26.08;;;;;;;;;;6101816;29;20024;-87
2022/04/12 00:20:39;;;;;;;56.72;24.15;;;;;;;;;;6102608;29;20062;-87
2022/04/12 00:23:40;;;;;;;63.00;27.90;;;;;;;;;;6101076;29;20655;-87
2022/04/12 00:26:40;;;;;;;54.45;26.40;;;;;;;;;;6122923;29;20099;-87
2022/04/12 00:29:40;;;;;;;63.55;26.90;;;;;;;;;;6106837;29;20131;-87
2022/04/12 00:32:40;;;;;;;69.93;28.25;;;;;;;;;;6125273;29;20483;-87
2022/04/12 00:35:41;;;;;;;66.15;28.58;;;;;;;;;;6136402;29;20428;-87
2022/04/12 00:38:41;;;;;;;82.40;36.03;;;;;;;;;;6148485;29;20071;-87
2022/04/12 00:41:42;;;;;;;66.85;28.23;;;;;;;;;;6125998;29;20396;-86
2022/04/12 00:44:43;;;;;;;76.25;28.90;;;;;;;;;;6131353;29;20539;-87
2022/04/12 00:47:43;;;;;;;59.92;27.98;;;;;;;;;;6148422;29;20077;-87
2022/04/12 00:50:44;;;;;;;63.58;26.50;;;;;;;;;;6125463;29;20086;-87
2022/04/12 00:53:45;;;;;;;60.75;26.63;;;;;;;;;;6126143;29;20059;-86
2022/04/12 00:56:48;;;;;;;59.55;27.38;;;;;;;;;;6129925;29;20027;-87
2022/04/12 00:59:51;;;;;;;60.95;27.15;;;;;;;;;;6131991;29;20142;-87
2022/04/12 01:02:51;;;;;;;60.83;28.38;;;;;;;;;;6109212;29;20035;-87
2022/04/12 01:05:51;;;;;;;69.95;32.55;;;;;;;;;;6108250;29;20042;-87
2022/04/12 01:08:52;;;;;;;60.92;27.48;;;;;;;;;;6129212;29;20027;-87
2022/04/12 01:11:52;;;;;;;59.15;28.05;;;;;;;;;;6124666;29;20024;-86
2022/04/12 01:14:53;;;;;;;64.55;27.20;;;;;;;;;;6123737;29;20489;-87
2022/04/12 01:17:53;;;;;;;60.08;28.08;;;;;;;;;;6131262;29;20118;-87
2022/04/12 01:20:53;;;;;;;58.60;26.13;;;;;;;;;;6130515;29;20427;-87
2022/04/12 01:23:57;;;;;;;60.40;27.50;;;;;;;;;;6147603;28;20034;-87
2022/04/12 01:26:58;;;;;;;70.07;31.52;;;;;;;;;;6147412;29;20126;-87
2022/04/12 01:29:58;;;;;;;76.53;33.67;;;;;;;;;;6145781;29;20077;-87
2022/04/12 01:32:58;;;;;;;63.90;33.78;;;;;;;;;;6146274;29;20395;-87
2022/04/12 01:35:59;;;;;;;67.50;30.08;;;;;;;;;;6145346;28;20043;-87
2022/04/12 01:38:59;;;;;;;58.75;27.23;;;;;;;;;;6118186;29;20019;-87
2022/04/12 01:41:59;;;;;;;64.80;28.90;;;;;;;;;;6113357;29;20023;-87
2022/04/12 01:44:59;;;;;;;60.47;23.83;;;;;;;;;;6129723;29;20030;-87
2022/04/12 01:48:00;;;;;;;57.42;24.33;;;;;;;;;;6129943;29;20114;-86
2022/04/12 01:51:00;;;;;;;60.10;25.63;;;;;;;;;;6118309;28;20038;-87
2022/04/12 01:54:00;;;;;;;61.38;30.60;;;;;;;;;;6147152;29;20538;-87
2022/04/12 01:57:00;;;;;;;65.60;33.92;;;;;;;;;;6146783;29;20058;-87
2022/04/12 02:00:01;;;;;;;59.35;27.15;;;;;;;;;;6129909;29;20449;-87
2022/04/12 02:03:04;;;;;;;57.40;24.67;;;;;;;;;;6137176;29;20170;-87
2022/04/12 02:06:05;;;;;;;56.90;24.20;;;;;;;;;;6130141;29;20112;-87
2022/04/12 02:09:05;;;;;;;65.50;27.63;;;;;;;;;;6130297;29;20055;-87
2022/04/12 02:12:06;;;;;;;52.53;24.80;;;;;;;;;;6127698;29;20382;-87
2022/04/12 02:15:06;;;;;;;51.80;26.05;;;;;;;;;;6147215;29;20750;-87
2022/04/12 02:18:06;;;;;;;76.05;35.97;;;;;;;;;;6129412;29;20028;-87
2022/04/12 02:21:07;;;;;;;66.22;29.00;;;;;;;;;;6128853;29;20376;-86
2022/04/12 02:24:07;;;;;;;58.53;26.77;;;;;;;;;;6124457;29;20383;-87
2022/04/12 02:27:07;;;;;;;53.25;24.58;;;;;;;;;;6130224;29;20387;-87
2022/04/12 02:30:08;;;;;;;58.53;26.77;;;;;;;;;;6122509;29;20035;-87
2022/04/12 02:33:08;;;;;;;58.65;25.88;;;;;;;;;;6117389;29;20616;-86
2022/04/12 02:36:09;;;;;;;58.95;25.60;;;;;;;;;;6106557;29;20079;-87
2022/04/12 02:39:09;;;;;;;54.67;24.83;;;;;;;;;;6093972;29;20565;-87
2022/04/12 02:42:09;;;;;;;61.92;26.08;;;;;;;;;;6096717;29;20056;-87
2022/04/12 02:45:09;;;;;;;62.95;30.80;;;;;;;;;;6091210;29;20111;-87
2022/04/12 02:48:11;;;;;;;69.95;32.20;;;;;;;;;;6091653;29;20176;-87
2022/04/12 02:51:11;;;;;;;74.05;32.35;;;;;;;;;;6097489;29;20111;-86
2022/04/12 02:54:12;;;;;;;68.50;30.80;;;;;;;;;;6097691;29;20384;-87
2022/04/12 02:57:12;;;;;;;55.67;26.42;;;;;;;;;;6085339;29;20777;-87
2022/04/12 03:00:13;;;;;;;55.13;26.08;;;;;;;;;;6075799;29;20025;-87
2022/04/12 03:03:13;;;;;;;56.72;25.25;;;;;;;;;;6080602;29;20062;-86
2022/04/12 03:06:13;;;;;;;66.82;26.55;;;;;;;;;;6097516;29;20032;-87
2022/04/12 03:09:14;;;;;;;62.03;26.30;;;;;;;;;;6090815;29;20043;-87
2022/04/12 03:12:14;;;;;;;57.70;26.52;;;;;;;;;;6097744;29;20276;-87
2022/04/12 03:15:14;;;;;;;61.78;28.38;;;;;;;;;;6096106;29;20119;-87
2022/04/12 03:18:16;;;;;;;59.58;26.60;;;;;;;;;;6073751;29;20079;-87
2022/04/12 03:21:16;;;;;;;62.38;24.95;;;;;;;;;;6082377;29;20034;-87
2022/04/12 03:24:16;;;;;;;58.80;24.87;;;;;;;;;;6091485;29;20024;-86
2022/04/12 03:27:17;;;;;;;51.20;27.15;;;;;;;;;;6097522;29;20276;-86
2022/04/12 03:30:17;;;;;;;56.53;26.17;;;;;;;;;;6098878;29;20035;-87
2022/04/12 03:33:17;;;;;;;55.33;26.38;;;;;;;;;;6097667;29;20365;-86
2022/04/12 03:36:18;;;;;;;54.78;24.67;;;;;;;;;;6130674;29;20040;-87
2022/04/12 03:39:18;;;;;;;65.70;27.87;;;;;;;;;;6140255;29;20099;-87
2022/04/12 03:42:18;;;;;;;60.05;27.63;;;;;;;;;;6145372;29;20301;-87
2022/04/12 03:45:18;;;;;;;59.72;26.98;;;;;;;;;;6146130;29;20035;-87
2022/04/12 03:48:19;;;;;;;55.80;26.17;;;;;;;;;;6131769;29;20035;-87
2022/04/12 03:51:19;;;;;;;80.15;31.65;;;;;;;;;;6132708;29;20039;-87
2022/04/12 03:54:19;;;;;;;59.75;27.67;;;;;;;;;;6123949;29;20023;-87
2022/04/12 03:57:19;;;;;;;65.83;28.33;;;;;;;;;;6132784;29;20027;-87
2022/04/12 04:00:20;;;;;;;61.33;29.33;;;;;;;;;;6131711;29;20263;-87
2022/04/12 04:03:20;;;;;;;63.95;31.95;;;;;;;;;;6132113;29;20023;-86
2022/04/12 04:06:20;;;;;;;69.22;29.67;;;;;;;;;;6140936;29;20035;-86
2022/04/12 04:09:21;;;;;;;53.28;26.30;;;;;;;;;;6111844;29;20477;-86
2022/04/12 04:12:22;;;;;;;60.47;26.33;;;;;;;;;;6149661;29;20019;-87
2022/04/12 04:15:23;;;;;;;53.63;24.63;;;;;;;;;;6144452;29;20506;-87
2022/04/12 04:18:23;;;;;;;60.55;26.63;;;;;;;;;;6117537;29;20025;-86
2022/04/12 04:21:23;;;;;;;50.50;25.33;;;;;;;;;;6113097;29;20032;-87
2022/04/12 04:24:23;;;;;;;67.63;31.50;;;;;;;;;;6129503;29;20462;-86
2022/04/12 04:27:28;;;;;;;59.58;28.35;;;;;;;;;;6131094;29;20042;-86
2022/04/12 04:30:31;;;;;;;60.83;28.27;;;;;;;;;;6141005;29;20027;-86
2022/04/12 04:33:31;;;;;;;59.40;26.80;;;;;;;;;;6131524;29;20114;-87
2022/04/12 04:36:31;;;;;;;55.70;29.15;;;;;;;;;;6149482;28;20724;-87
2022/04/12 04:39:32;;;;;;;81.65;36.05;;;;;;;;;;6147164;29;20031;-87
2022/04/12 04:42:33;;;;;;;65.10;34.05;;;;;;;;;;6125946;29;20031;-86
2022/04/12 04:45:33;;;;;;;72.07;32.00;;;;;;;;;;6148112;29;20110;-87
2022/04/12 04:48:34;;;;;;;69.68;31.75;;;;;;;;;;6148063;28;20054;-86
2022/04/12 04:51:36;;;;;;;64.93;30.27;;;;;;;;;;6149891;28;20042;-87
2022/04/12 04:54:36;;;;;;;59.95;28.38;;;;;;;;;;6132263;28;20027;-86
2022/04/12 04:57:40;;;;;;;59.03;29.88;;;;;;;;;;6131529;28;20066;-86
2022/04/12 05:00:40;;;;;;;55.85;29.65;;;;;;;;;;6131024;29;20027;-86
2022/04/12 05:03:40;;;;;;;60.38;31.08;;;;;;;;;;6140581;29;20066;-86
2022/04/12 05:06:41;;;;;;;67.43;35.13;;;;;;;;;;6130674;29;20031;-86
2022/04/12 05:09:41;;;;;;;72.38;33.65;;;;;;;;;;6120142;29;20726;-87
2022/04/12 05:12:41;;;;;;;63.40;33.53;;;;;;;;;;6129925;29;20011;-87
2022/04/12 05:15:42;;;;;;;70.18;31.35;;;;;;;;;;6130123;29;20023;-87
2022/04/12 05:18:42;;;;;;;74.30;32.20;;;;;;;;;;6122543;29;20102;-86
2022/04/12 05:21:42;;;;;;;63.28;32.10;;;;;;;;;;6128863;29;20426;-86
2022/04/12 05:24:42;;;;;;;63.90;30.37;;;;;;;;;;6129139;29;20031;-87
2022/04/12 05:27:43;;;;;;;64.60;32.58;;;;;;;;;;6130530;29;20626;-87
2022/04/12 05:30:43;;;;;;;61.25;32.40;;;;;;;;;;6130687;29;20031;-87
2022/04/12 05:33:44;;;;;;;58.83;30.38;;;;;;;;;;6147354;29;20019;-87
2022/04/12 05:36:44;;;;;;;60.35;28.98;;;;;;;;;;6148715;28;20087;-87
2022/04/12 05:39:44;;;;;;;65.33;32.07;;;;;;;;;;6130258;28;20077;-87
2022/04/12 05:42:45;;;;;;;53.53;29.33;;;;;;;;;;6127752;28;20294;-87
2022/04/12 05:45:45;;;;;;;59.87;33.90;;;;;;;;;;6144951;29;20046;-87
2022/04/12 05:48:45;;;;;;;55.93;30.53;;;;;;;;;;6141580;28;20499;-87
2022/04/12 05:51:46;;;;;;;51.80;28.95;;;;;;;;;;6127173;29;20058;-87
2022/04/12 05:54:46;;;;;;;51.43;32.27;;;;;;;;;;6125016;29;20561;-87
2022/04/12 05:57:51;;;;;;;55.13;30.57;;;;;;;;;;6113486;28;20027;-88
2022/04/12 06:00:51;;;;;;;51.22;33.03;;;;;;;;;;6125667;29;20051;-88
2022/04/12 06:03:51;;;;;;;53.80;30.80;;;;;;;;;;6147761;29;20030;-88
2022/04/12 06:06:51;;;;;;;52.70;31.30;;;;;;;;;;6149365;28;20027;-88
2022/04/12 06:09:51;;;;;;;44.47;27.17;;;;;;;;;;6139963;28;20023;-88
2022/04/12 06:12:52;;;;;;;52.23;29.67;;;;;;;;;;6127321;29;20318;-89
2022/04/12 06:15:52;;;;;;;51.07;31.20;;;;;;;;;;6124723;29;20110;-88
2022/04/12 06:18:53;;;;;;;48.20;29.37;;;;;;;;;;6119589;29;20399;-88
2022/04/12 06:21:53;;;;;;;50.63;31.43;;;;;;;;;;6142298;29;20030;-89
2022/04/12 06:24:53;;;;;;;47.20;30.63;;;;;;;;;;6143922;29;20026;-89
2022/04/12 06:27:53;;;;;;;46.30;31.07;;;;;;;;;;6126032;29;20439;-89
2022/04/12 06:30:55;;;;;;;48.30;28.00;;;;;;;;;;6144251;29;20122;-88
2022/04/12 06:33:55;;;;;;;43.40;27.48;;;;;;;;;;6144739;29;20023;-89
2022/04/12 06:36:55;;;;;;;38.70;24.77;;;;;;;;;;6125995;29;20050;-89
2022/04/12 06:39:56;;;;;;;36.70;23.77;;;;;;;;;;6124651;29;20047;-89
2022/04/12 06:42:56;;;;;;;41.03;25.03;;;;;;;;;;6127932;29;20023;-89
2022/04/12 06:45:56;;;;;;;38.40;24.00;;;;;;;;;;6109692;29;20038;-90
2022/04/12 06:48:56;;;;;;;41.77;24.33;;;;;;;;;;6123960;29;20019;-89
2022/04/12 06:51:57;;;;;;;35.17;22.40;;;;;;;;;;6127135;29;20470;-89
2022/04/12 06:54:57;;;;;;;34.13;22.37;;;;;;;;;;6145017;29;20527;-88
2022/04/12 06:57:58;;;;;;;33.00;20.77;;;;;;;;;;6127081;29;20070;-89
2022/04/12 07:00:58;;;;;;;35.97;21.00;;;;;;;;;;6129301;29;20039;-89
2022/04/12 07:03:58;;;;;;;33.60;21.73;;;;;;;;;;6129016;29;20027;-89
2022/04/12 07:06:59;;;;;;;32.27;20.23;;;;;;;;;;6147778;29;20394;-89
2022/04/12 07:09:59;;;;;;;30.27;19.95;;;;;;;;;;6127954;29;20414;-89
2022/04/12 07:13:00;;;;;;;29.33;17.77;;;;;;;;;;6147513;29;20023;-89
2022/04/12 07:16:02;;;;;;;30.97;18.07;;;;;;;;;;6132425;29;20099;-89
2022/04/12 07:19:02;;;;;;;35.58;22.33;;;;;;;;;;6128509;29;20027;-89
2022/04/12 07:22:04;;;;;;;41.60;22.70;;;;;;;;;;6132000;29;20514;-90
2022/04/12 07:25:05;;;;;;;37.42;20.55;;;;;;;;;;6134201;29;20423;-89
2022/04/12 07:28:05;;;;;;;36.83;21.33;;;;;;;;;;6132682;29;20027;-89
2022/04/12 07:31:05;;;;;;;32.33;18.90;;;;;;;;;;6134986;29;20145;-89
2022/04/12 07:34:07;;;;;;;32.30;18.77;;;;;;;;;;6153075;28;20023;-89
2022/04/12 07:37:08;;;;;;;;;;;;;;;;;;6133235;29;20047;-90
2022/04/12 07:40:08;;;;;;;47.85;23.08;;;;;;;;;;6138008;29;20333;-89
2022/04/12 07:43:09;;;;;;;37.80;20.80;;;;;;;;;;6135313;29;20027;-89
2022/04/12 07:46:09;;;;;;;46.13;19.73;;;;;;;;;;6131375;29;20015;-90
2022/04/12 07:49:09;;;;;;;43.03;21.43;;;;;;;;;;6135720;29;20027;-89
2022/04/12 07:52:09;;;;;;;33.77;18.90;;;;;;;;;;6135078;29;20019;-90
2022/04/12 07:55:10;;;;;;;40.97;19.07;;;;;;;;;;6133673;29;20030;-89
2022/04/12 07:58:10;;;;;;;29.80;14.90;;;;;;;;;;6151100;29;20071;-89
2022/04/12 08:01:10;;;;;;;22.30;11.40;;;;;;;;;;6134251;29;20090;-89
2022/04/12 08:04:10;;;;;;;22.30;9.77;;;;;;;;;;6135375;29;20632;-89
2022/04/12 08:07:11;;;;;;;22.60;12.87;;;;;;;;;;6135935;29;20038;-89
2022/04/12 08:10:11;;;;;;;23.47;13.47;;;;;;;;;;6152544;29;20038;-88
2022/04/12 08:13:11;;;;;;;29.60;15.67;;;;;;;;;;6134559;29;20031;-89
2022/04/12 08:16:15;;;;;;;20.63;12.77;;;;;;;;;;6134597;29;20038;-90
2022/04/12 08:19:15;;;;;;;28.88;14.48;;;;;;;;;;6151663;29;20074;-89
2022/04/12 08:22:16;;;;;;;26.73;13.20;;;;;;;;;;6133901;29;20431;-89
2022/04/12 08:25:16;;;;;;;25.10;14.23;;;;;;;;;;6134000;29;20027;-89
2022/04/12 08:28:16;;;;;;;28.30;13.20;;;;;;;;;;6133961;29;20056;-89
2022/04/12 08:31:17;;;;;;;22.73;12.40;;;;;;;;;;6127370;29;20038;-90
2022/04/12 08:34:17;;;;;;;14.83;6.87;;;;;;;;;;6109863;29;20030;-89
2022/04/12 08:37:18;;;;;;;11.13;6.03;;;;;;;;;;6111036;29;20032;-89
2022/04/12 08:40:18;;;;;;;12.63;6.63;;;;;;;;;;6133966;29;20111;-89
2022/04/12 08:43:19;;;;;;;11.73;6.07;;;;;;;;;;6116872;29;20015;-88
2022/04/12 08:46:20;;;;;;;10.23;5.05;;;;;;;;;;6133458;29;20027;-89
2022/04/12 08:49:20;;;;;;;11.23;7.47;;;;;;;;;;6132689;29;20046;-89
2022/04/12 08:52:21;;;;;;;12.33;5.70;;;;;;;;;;6133980;29;20023;-89
2022/04/12 08:55:22;;;;;;;16.60;7.07;;;;;;;;;;6133296;29;20027;-89
2022/04/12 08:58:22;;;;;;;10.97;5.63;;;;;;;;;;6133792;29;20031;-89
2022/04/12 09:01:22;;;;;;;7.77;5.43;;;;;;;;;;6133780;29;20037;-88
2022/04/12 09:04:26;;;;;;;10.60;5.87;;;;;;;;;;6133340;29;20023;-89
2022/04/12 09:07:27;;;;;;;10.68;6.05;;;;;;;;;;6151012;29;20491;-89
2022/04/12 09:10:34;;;;;;;10.48;6.85;;;;;;;;;;6125539;29;20542;-89
2022/04/12 09:13:38;;;;;;;11.55;5.20;;;;;;;;;;6116960;29;20019;-89
2022/04/12 09:16:44;;;;;;;13.80;6.15;;;;;;;;;;6131702;29;20030;-89
2022/04/12 09:19:46;;;;;;;14.23;6.68;;;;;;;;;;6149057;29;20019;-88
2022/04/12 09:22:46;;;;;;;10.32;6.40;;;;;;;;;;6148677;29;20395;-89
2022/04/12 09:25:53;;;;;;;13.93;7.37;;;;;;;;;;6149004;28;20094;-89
2022/04/12 09:28:54;;;;;;;17.15;6.82;;;;;;;;;;6122733;29;20550;-89
2022/04/12 09:31:55;;;;;;;12.20;6.30;;;;;;;;;;6132896;29;20027;-89
2022/04/12 09:34:56;;;;;;;12.25;6.00;;;;;;;;;;6131348;28;20046;-89
2022/04/12 09:37:56;;;;;;;10.70;5.50;;;;;;;;;;6130844;29;20374;-88
2022/04/12 09:41:13;;;;;;;15.27;6.57;;;;;;;;;;6129427;29;20463;-89
2022/04/12 09:44:17;;;;;;;11.88;5.65;;;;;;;;;;6146684;28;20451;-88
2022/04/12 09:47:17;;;;;;;13.43;6.32;;;;;;;;;;6128460;29;20012;-89
2022/04/12 09:50:25;;;;;;;21.43;12.63;;;;;;;;;;6147305;29;20027;-89
2022/04/12 09:53:36;;;;;;;13.52;6.78;;;;;;;;;;6130421;29;20418;-88
2022/04/12 09:56:37;;;;;;;12.52;7.35;;;;;;;;;;6128401;29;20054;-89
2022/04/12 09:59:39;;;;;;;14.53;7.53;;;;;;;;;;6128720;29;20019;-89
2022/04/12 10:02:39;;;;;;;10.45;5.93;;;;;;;;;;6134724;29;20496;-89
2022/04/12 10:05:42;;;;;;;19.33;7.10;;;;;;;;;;6146164;29;20011;-89
2022/04/12 10:08:43;;;;;;;11.02;6.28;;;;;;;;;;6128805;29;20420;-89
2022/04/12 10:11:44;;;;;;;12.85;7.40;;;;;;;;;;6129251;29;20078;-89
2022/04/12 10:14:45;;;;;;;15.30;7.07;;;;;;;;;;6134598;29;20455;-89
2022/04/12 10:17:46;;;;;;;14.43;8.48;;;;;;;;;;6132875;29;20042;-89
2022/04/12 10:20:46;;;;;;;12.43;6.93;;;;;;;;;;6131271;29;20043;-89
2022/04/12 10:23:56;;;;;;;16.60;7.13;;;;;;;;;;6128615;29;20011;-89
2022/04/12 10:26:57;;;;;;;11.88;6.85;;;;;;;;;;6129732;29;20023;-89
2022/04/12 10:30:16;;;;;;;14.27;7.50;;;;;;;;;;6119549;28;20027;-89
2022/04/12 10:33:18;;;;;;;15.70;7.32;;;;;;;;;;6108151;29;20118;-89
2022/04/12 10:36:18;;;;;;;;;;;;;;;;;;6129077;28;20377;-89
2022/04/12 10:39:20;;;;;;;13.13;6.95;;;;;;;;;;6128895;28;19940;-89
2022/04/12 10:42:28;;;;;;;16.08;7.53;;;;;;;;;;6145700;28;20075;-89
2022/04/12 10:45:32;;;;;;;15.13;7.60;;;;;;;;;;6144208;29;20030;-89
2022/04/12 10:48:35;;;;;;;17.58;11.30;;;;;;;;;;6144419;28;20019;-89
2022/04/12 10:51:37;;;;;;;13.52;7.55;;;;;;;;;;6145075;29;20038;-89
2022/04/12 10:54:38;;;;;;;18.10;8.52;;;;;;;;;;6130091;28;20041;-88
2022/04/12 10:57:38;;;;;;;14.03;8.50;;;;;;;;;;6129887;29;20475;-89
2022/04/12 11:00:42;;;;;;;18.40;8.97;;;;;;;;;;6116591;28;20043;-88
2022/04/12 11:03:45;;;;;;;18.30;8.68;;;;;;;;;;6127802;29;20050;-88
2022/04/12 11:06:46;;;;;;;12.82;8.20;;;;;;;;;;6144440;29;20034;-88
2022/04/12 11:10:06;;;;;;;16.63;7.30;;;;;;;;;;6124495;29;20015;-88
2022/04/12 11:13:07;;;;;;;15.38;8.63;;;;;;;;;;6147328;28;20455;-89
2022/04/12 11:16:09;;;;;;;15.57;7.93;;;;;;;;;;6130229;29;20015;-88
2022/04/12 11:19:18;;;;;;;15.68;9.15;;;;;;;;;;6147474;29;20024;-88
2022/04/12 11:22:18;;;;;;;13.88;8.32;;;;;;;;;;6128665;29;20487;-88
2022/04/12 11:25:20;;;;;;;16.77;8.80;;;;;;;;;;6128502;29;20138;-89
2022/04/12 11:28:22;;;;;;;16.42;8.32;;;;;;;;;;6146142;29;20015;-89
2022/04/12 11:31:22;;;;;;;16.13;9.23;;;;;;;;;;6126029;29;20023;-88
2022/04/12 11:34:24;;;;;;;14.53;9.27;;;;;;;;;;6128174;28;20530;-89
2022/04/12 11:37:24;;;;;;;17.20;9.82;;;;;;;;;;6146785;29;20031;-88
2022/04/12 11:40:25;;;;;;;14.60;8.47;;;;;;;;;;6128843;29;20502;-89
2022/04/12 11:43:27;;;;;;;17.45;9.48;;;;;;;;;;6146944;29;20053;-89
2022/04/12 11:46:31;;;;;;;15.95;9.50;;;;;;;;;;6146871;29;20459;-88
2022/04/12 11:49:36;;;;;;;21.08;10.07;;;;;;;;;;6142766;29;20034;-89
2022/04/12 11:52:37;;;;;;;22.58;10.20;;;;;;;;;;6127354;29;20031;-88
2022/04/12 11:55:38;;;;;;;16.70;9.37;;;;;;;;;;6129689;29;20050;-89
2022/04/12 11:58:38;;;;;;;15.85;9.25;;;;;;;;;;6129677;29;20027;-88
2022/04/12 12:01:39;;;;;;;15.13;8.80;;;;;;;;;;6146672;29;20083;-88
2022/04/12 12:04:52;;;;;;;16.13;9.73;;;;;;;;;;6129402;29;20020;-88
2022/04/12 12:07:56;;;;;;;14.13;8.00;;;;;;;;;;6130001;29;20027;-88
2022/04/12 12:10:57;;;;;;;15.88;8.10;;;;;;;;;;6150735;29;20487;-87
2022/04/12 12:13:57;;;;;;;13.50;8.37;;;;;;;;;;6131822;29;20644;-88
2022/04/12 12:17:09;;;;;;;17.23;8.60;;;;;;;;;;6133201;29;20102;-88
2022/04/12 12:20:09;;;;;;;18.38;9.10;;;;;;;;;;6132936;29;20031;-89
2022/04/12 12:23:10;;;;;;;14.87;7.67;;;;;;;;;;6132287;29;20015;-89
2022/04/12 12:26:10;;;;;;;14.83;8.47;;;;;;;;;;6132133;29;20370;-88
2022/04/12 12:29:11;;;;;;;15.10;8.90;;;;;;;;;;6132495;29;20023;-88
2022/04/12 12:32:15;;;;;;;16.92;8.10;;;;;;;;;;6132525;29;20023;-89
2022/04/12 12:35:17;;;;;;;15.82;8.10;;;;;;;;;;6132748;29;20138;-89
2022/04/12 12:38:21;;;;;;;14.82;7.93;;;;;;;;;;6132504;29;20522;-89
2022/04/12 12:41:23;;;;;;;16.17;9.07;;;;;;;;;;6128794;29;20087;-89
2022/04/12 12:44:24;;;;;;;15.10;7.60;;;;;;;;;;6156054;28;20012;-89
2022/04/12 12:47:26;;;;;;;12.88;7.43;;;;;;;;;;6134972;29;20026;-89
2022/04/12 12:50:27;;;;;;;11.32;6.40;;;;;;;;;;6134440;29;20372;-89
2022/04/12 12:53:28;;;;;;;10.90;7.25;;;;;;;;;;6135287;28;20051;-89
2022/04/12 12:56:32;;;;;;;14.37;6.90;;;;;;;;;;6130597;29;20019;-89
2022/04/12 12:59:34;;;;;;;12.02;6.55;;;;;;;;;;6136015;29;20030;-89
2022/04/12 13:02:35;;;;;;;14.57;8.25;;;;;;;;;;6131692;29;20031;-89
2022/04/12 13:05:36;;;;;;;15.95;6.93;;;;;;;;;;6133315;29;20034;-89
2022/04/12 13:08:36;;;;;;;11.50;6.97;;;;;;;;;;6133685;29;20032;-89
2022/04/12 13:11:36;;;;;;;11.97;7.07;;;;;;;;;;6132747;29;20016;-89
2022/04/12 13:14:37;;;;;;;13.97;6.07;;;;;;;;;;6133915;29;20106;-89
2022/04/12 13:17:38;;;;;;;13.55;7.53;;;;;;;;;;6134723;29;20019;-90
2022/04/12 13:20:38;;;;;;;12.63;7.47;;;;;;;;;;6128451;28;20577;-90
2022/04/12 13:23:38;;;;;;;15.07;8.70;;;;;;;;;;6142340;28;20027;-90
2022/04/12 13:26:38;;;;;;;16.83;8.13;;;;;;;;;;6132541;29;20020;-90
2022/04/12 13:29:39;;;;;;;10.93;6.13;;;;;;;;;;6148690;29;20431;-90
2022/04/12 13:32:39;;;;;;;15.80;6.10;;;;;;;;;;6131436;29;20391;-90
2022/04/12 13:35:39;;;;;;;13.93;6.57;;;;;;;;;;6130714;28;20035;-89
2022/04/12 13:38:40;;;;;;;13.03;6.67;;;;;;;;;;6132035;28;20050;-90
2022/04/12 13:41:41;;;;;;;16.07;7.37;;;;;;;;;;6152269;29;20439;-91
2022/04/12 13:44:41;;;;;;;;;;;;;;;;;;6139400;28;20019;-89
2022/04/12 13:47:43;;;;;;;;;;;;;;;;;;6135424;29;20198;-89
2022/04/12 13:50:43;;;;;;;16.17;8.65;;;;;;;;;;6139028;29;19914;-89
2022/04/12 13:53:43;;;;;;;14.63;6.90;;;;;;;;;;6130422;29;20031;-91
2022/04/12 13:56:44;;;;;;;13.43;6.43;;;;;;;;;;6132618;29;20030;-90
2022/04/12 13:59:44;;;;;;;13.07;6.30;;;;;;;;;;6132639;29;20310;-91
2022/04/12 14:02:44;;;;;;;13.30;6.50;;;;;;;;;;6133350;29;20471;-91
2022/04/12 14:05:46;;;;;;;12.97;6.77;;;;;;;;;;6118891;29;20109;-91
2022/04/12 14:08:46;;;;;;;;;;;;;;;;;;6135486;29;20073;-91
2022/04/12 14:11:47;;;;;;;14.13;6.75;;;;;;;;;;6136960;28;19925;-91
2022/04/12 14:14:47;;;;;;;;;;;;;;;;;;6130757;28;20019;-91
2022/04/12 14:17:48;;;;;;;11.68;7.43;;;;;;;;;;6131308;29;19913;-90
2022/04/12 14:20:48;;;;;;;11.37;5.80;;;;;;;;;;6129376;29;20027;-90
2022/04/12 14:23:48;;;;;;;18.07;7.40;;;;;;;;;;6131970;29;20054;-90
2022/04/12 14:26:48;;;;;;;13.33;7.53;;;;;;;;;;6132322;29;20651;-90
2022/04/12 14:29:50;;;;;;;10.67;6.07;;;;;;;;;;6136191;29;20019;-91
2022/04/12 14:32:50;;;;;;;15.55;6.88;;;;;;;;;;6130367;29;20474;-90
2022/04/12 14:35:50;;;;;;;11.80;6.17;;;;;;;;;;6131310;29;20051;-91
2022/04/12 14:38:50;;;;;;;12.00;6.23;;;;;;;;;;6132564;29;20423;-90
2022/04/12 14:41:53;;;;;;;13.73;6.63;;;;;;;;;;6133559;29;20033;-91
2022/04/12 14:44:53;;;;;;;14.18;7.13;;;;;;;;;;6129924;29;20027;-90
2022/04/12 14:47:53;;;;;;;13.97;7.57;;;;;;;;;;6123613;29;20046;-90
2022/04/12 14:50:58;;;;;;;14.97;7.37;;;;;;;;;;6129146;29;20023;-90
2022/04/12 14:53:59;;;;;;;22.67;14.43;;;;;;;;;;6133185;28;20078;-90
2022/04/12 14:57:00;;;;;;;19.50;7.90;;;;;;;;;;6131587;28;20031;-90
2022/04/12 15:00:01;;;;;;;20.80;9.95;;;;;;;;;;6132834;29;20034;-90
2022/04/12 15:03:02;;;;;;;16.15;8.00;;;;;;;;;;6145789;29;20022;-91
2022/04/12 15:06:02;;;;;;;23.93;15.70;;;;;;;;;;6139429;29;20398;-90
2022/04/12 15:09:03;;;;;;;20.30;10.43;;;;;;;;;;6137055;28;20078;-90
2022/04/12 15:12:04;;;;;;;16.03;8.43;;;;;;;;;;6142221;28;20054;-91
2022/04/12 15:15:05;;;;;;;14.85;7.78;;;;;;;;;;6134069;28;20526;-90
2022/04/12 15:18:06;;;;;;;17.80;7.22;;;;;;;;;;6125395;28;20034;-90
2022/04/12 15:21:06;;;;;;;25.50;15.10;;;;;;;;;;6129994;28;20024;-90
2022/04/12 15:24:10;;;;;;;14.73;7.63;;;;;;;;;;6128085;28;20026;-90
2022/04/12 15:27:10;;;;;;;22.08;10.70;;;;;;;;;;6126640;28;20062;-90
2022/04/12 15:30:11;;;;;;;29.57;20.00;;;;;;;;;;6129698;29;20446;-90
2022/04/12 15:33:11;;;;;;;18.30;7.95;;;;;;;;;;6136243;28;20402;-90
2022/04/12 15:36:11;;;;;;;13.47;7.00;;;;;;;;;;6137705;28;20110;-90
2022/04/12 15:39:12;;;;;;;28.03;14.13;;;;;;;;;;6114392;28;20057;-90
2022/04/12 15:42:12;;;;;;;13.53;7.93;;;;;;;;;;6131674;28;20106;-90
2022/04/12 15:45:13;;;;;;;13.40;6.70;;;;;;;;;;6131684;28;20700;-90
2022/04/12 15:48:13;;;;;;;12.67;7.23;;;;;;;;;;6146861;28;20425;-90
2022/04/12 15:51:14;;;;;;;12.30;6.57;;;;;;;;;;6143431;28;20074;-90
2022/04/12 15:54:15;;;;;;;16.57;8.00;;;;;;;;;;6152338;29;20498;-90
2022/04/12 15:57:15;;;;;;;12.23;6.57;;;;;;;;;;6151381;29;20146;-90
2022/04/12 16:00:16;;;;;;;13.87;6.87;;;;;;;;;;6134111;29;20027;-90
2022/04/12 16:03:18;;;;;;;18.65;6.50;;;;;;;;;;6133471;29;20035;-90
2022/04/12 16:06:19;;;;;;;12.82;6.18;;;;;;;;;;6143677;29;20032;-91
2022/04/12 16:09:20;;;;;;;12.57;5.22;;;;;;;;;;6110546;29;20031;-91
2022/04/12 16:12:21;;;;;;;13.27;6.47;;;;;;;;;;6118893;28;20439;-91
2022/04/12 16:15:21;;;;;;;10.63;6.13;;;;;;;;;;6140594;28;20086;-91
2022/04/12 16:18:22;;;;;;;14.32;5.72;;;;;;;;;;6139061;29;20157;-90
2022/04/12 16:21:22;;;;;;;13.47;4.50;;;;;;;;;;6150508;28;20098;-90
2022/04/12 16:24:22;;;;;;;18.30;6.13;;;;;;;;;;6150106;28;20019;-90
2022/04/12 16:27:22;;;;;;;10.43;5.45;;;;;;;;;;6132784;29;20289;-91
2022/04/12 16:30:23;;;;;;;12.60;5.30;;;;;;;;;;6137600;29;20031;-90
2022/04/12 16:33:23;;;;;;;12.77;6.10;;;;;;;;;;6149242;28;20506;-90
2022/04/12 16:36:23;;;;;;;11.97;6.07;;;;;;;;;;6131325;29;20117;-90
2022/04/12 16:39:24;;;;;;;14.52;6.55;;;;;;;;;;6130763;29;20293;-90
2022/04/12 16:42:24;;;;;;;14.63;6.00;;;;;;;;;;6146987;29;20111;-90
2022/04/12 16:45:24;;;;;;;11.73;5.80;;;;;;;;;;6146538;28;20023;-90
2022/04/12 16:48:24;;;;;;;20.13;8.07;;;;;;;;;;6133049;29;20090;-90
2022/04/12 16:51:25;;;;;;;17.98;7.65;;;;;;;;;;6128725;29;20019;-91
2022/04/12 16:54:25;;;;;;;17.77;9.18;;;;;;;;;;6139764;28;20114;-90
2022/04/12 16:57:25;;;;;;;14.30;7.43;;;;;;;;;;6147948;29;20042;-91
2022/04/12 17:00:26;;;;;;;12.60;6.57;;;;;;;;;;6133248;29;20301;-90
2022/04/12 17:03:27;;;;;;;14.88;5.95;;;;;;;;;;6135460;29;20404;-91
2022/04/12 17:06:27;;;;;;;14.45;6.78;;;;;;;;;;6133282;29;20067;-90
2022/04/12 17:09:27;;;;;;;12.00;5.88;;;;;;;;;;6144088;29;20047;-90
2022/04/12 17:12:27;;;;;;;13.37;5.33;;;;;;;;;;6149670;28;20041;-90
2022/04/12 17:15:28;;;;;;;10.87;5.63;;;;;;;;;;6132585;29;20802;-91
2022/04/12 17:18:28;;;;;;;16.15;5.68;;;;;;;;;;6132211;29;20646;-91
2022/04/12 17:21:28;;;;;;;13.25;5.75;;;;;;;;;;6131731;28;20031;-91
2022/04/12 17:24:29;;;;;;;17.35;7.57;;;;;;;;;;6135721;28;20563;-91
2022/04/12 17:27:29;;;;;;;14.52;7.03;;;;;;;;;;6128908;29;20050;-91
2022/04/12 17:30:29;;;;;;;14.77;7.15;;;;;;;;;;6133711;29;20114;-91
2022/04/12 17:33:30;;;;;;;16.57;7.13;;;;;;;;;;6132213;29;20119;-91
2022/04/12 17:36:30;;;;;;;15.27;7.07;;;;;;;;;;6162820;28;20377;-91
2022/04/12 17:39:30;;;;;;;13.13;6.93;;;;;;;;;;6145700;28;20042;-91
2022/04/12 17:42:30;;;;;;;12.60;7.28;;;;;;;;;;6137043;29;20658;-91
2022/04/12 17:45:31;;;;;;;14.90;6.87;;;;;;;;;;6134329;28;20026;-91
2022/04/12 17:48:31;;;;;;;16.45;6.32;;;;;;;;;;6130196;29;20266;-91